Jupiter Spirit — A8ZC2 — position and weather

sailwx.info

Track history (hours):
 
Tides and Currents Weather Stations Pressure Air Temp Water Temp Dewpoint Dewpoint Depression Visibility Wind Speed Wind Dir Waves Ship Positions

Jupiter Spirit

Last reported at 2016-Sep-24 10:34 UTC. Time now 2016-Sep-27 05:24 UTC.
Position N 34°34' E 139°09'.

Length 183 m; draft 8.1 m.

Type: Cargo ship. MMSI: 636015173.

Date/timePositionNaut miles runAvg speedWind from/ knotsBaromVisibWave heightAir tempDewpointWater temp
2016-Sep-24 10:34N 34°34' E 139°09'60 8.5
2016-Sep-24 03:31N 35°28' E 139°41'0 0.0
2016-Sep-24 02:31N 35°28' E 139°41'0 0.0
2016-Sep-24 01:31N 35°28' E 139°41'0 0.0
2016-Sep-24 00:31N 35°28' E 139°41'0 0.0
2016-Sep-23 19:31N 35°28' E 139°41'0 0.0
2016-Sep-23 17:31N 35°28' E 139°41'0 0.0
2016-Sep-23 16:31N 35°28' E 139°41'0 0.0
2016-Sep-23 15:31N 35°28' E 139°41'0 0.0
2016-Sep-23 13:31N 35°28' E 139°41'9 2.4
2016-Sep-23 09:32N 35°19' E 139°39'0 0.0
2016-Sep-23 06:32N 35°19' E 139°39'0 0.0
2016-Sep-23 04:32N 35°19' E 139°39'0 0.0
2016-Sep-23 03:26N 35°19' E 139°39'0 0.0
2016-Sep-23 02:32N 35°19' E 139°39'0 0.0
2016-Sep-23 01:23N 35°19' E 139°39'0 0.0
2016-Sep-23 00:32N 35°19' E 139°39'0 0.0
2016-Sep-22 23:32N 35°19' E 139°39'13 4.2
2016-Sep-22 20:33N 35°08' E 139°47'  
Track history (hours):
 
Tides and Currents Weather Stations Pressure Air Temp Water Temp Dewpoint Dewpoint Depression Visibility Wind Speed Wind Dir Waves Ship Positions

Jupiter Spirit

Last reported at 2016-Sep-24 10:34 UTC. Time now 2016-Sep-27 05:24 UTC.
Position N 34°34' E 139°09'.

Length 183 m; draft 8.1 m.

Type: Cargo ship. MMSI: 636015173.

Date/timePositionNaut miles runAvg speedWind from/ knotsBaromVisibWave heightAir tempDewpointWater temp
2016-Sep-24 10:34N 34°34' E 139°09'60 8.5
2016-Sep-24 03:31N 35°28' E 139°41'0 0.0
2016-Sep-24 02:31N 35°28' E 139°41'0 0.0
2016-Sep-24 01:31N 35°28' E 139°41'0 0.0
2016-Sep-24 00:31N 35°28' E 139°41'0 0.0
2016-Sep-23 19:31N 35°28' E 139°41'0 0.0
2016-Sep-23 17:31N 35°28' E 139°41'0 0.0
2016-Sep-23 16:31N 35°28' E 139°41'0 0.0
2016-Sep-23 15:31N 35°28' E 139°41'0 0.0
2016-Sep-23 13:31N 35°28' E 139°41'9 2.4
2016-Sep-23 09:32N 35°19' E 139°39'0 0.0
2016-Sep-23 06:32N 35°19' E 139°39'0 0.0
2016-Sep-23 04:32N 35°19' E 139°39'0 0.0
2016-Sep-23 03:26N 35°19' E 139°39'0 0.0
2016-Sep-23 02:32N 35°19' E 139°39'0 0.0
2016-Sep-23 01:23N 35°19' E 139°39'0 0.0
2016-Sep-23 00:32N 35°19' E 139°39'0 0.0
2016-Sep-22 23:32N 35°19' E 139°39'13 4.2
2016-Sep-22 20:33N 35°08' E 139°47'  

Dump ship's entire track history